sensor_id;sensor_type;location;lat;lon;timestamp;P1;durP1;ratioP1;P2;durP2;ratioP2
23714;SDS011;12036;50.858;4.472;2022-12-11T00:01:24;19.95;;;9.10;;
23714;SDS011;12036;50.858;4.472;2022-12-11T00:03:50;18.60;;;9.52;;
23714;SDS011;12036;50.858;4.472;2022-12-11T00:06:16;17.67;;;9.25;;
23714;SDS011;12036;50.858;4.472;2022-12-11T00:08:43;18.77;;;9.27;;
23714;SDS011;12036;50.858;4.472;2022-12-11T00:11:18;21.15;;;9.75;;
23714;SDS011;12036;50.858;4.472;2022-12-11T00:13:45;23.60;;;10.63;;
23714;SDS011;12036;50.858;4.472;2022-12-11T00:16:11;15.85;;;8.98;;
23714;SDS011;12036;50.858;4.472;2022-12-11T00:18:37;18.60;;;9.07;;
23714;SDS011;12036;50.858;4.472;2022-12-11T00:21:04;23.17;;;9.93;;
23714;SDS011;12036;50.858;4.472;2022-12-11T00:23:35;19.20;;;9.50;;
23714;SDS011;12036;50.858;4.472;2022-12-11T00:26:05;20.15;;;9.95;;
23714;SDS011;12036;50.858;4.472;2022-12-11T00:28:32;21.73;;;10.77;;
23714;SDS011;12036;50.858;4.472;2022-12-11T00:30:58;22.23;;;10.57;;
23714;SDS011;12036;50.858;4.472;2022-12-11T00:33:25;17.13;;;9.32;;
23714;SDS011;12036;50.858;4.472;2022-12-11T00:35:51;23.80;;;10.60;;
23714;SDS011;12036;50.858;4.472;2022-12-11T00:38:17;22.60;;;10.18;;
23714;SDS011;12036;50.858;4.472;2022-12-11T00:40:45;20.83;;;9.68;;
23714;SDS011;12036;50.858;4.472;2022-12-11T00:43:12;21.27;;;9.68;;
23714;SDS011;12036;50.858;4.472;2022-12-11T00:45:41;21.33;;;9.68;;
23714;SDS011;12036;50.858;4.472;2022-12-11T00:48:09;25.58;;;11.02;;
23714;SDS011;12036;50.858;4.472;2022-12-11T00:50:36;21.77;;;10.48;;
23714;SDS011;12036;50.858;4.472;2022-12-11T00:53:03;23.40;;;10.23;;
23714;SDS011;12036;50.858;4.472;2022-12-11T00:55:29;23.92;;;10.40;;
23714;SDS011;12036;50.858;4.472;2022-12-11T00:57:56;21.92;;;10.27;;
23714;SDS011;12036;50.858;4.472;2022-12-11T01:00:22;21.33;;;10.80;;
23714;SDS011;12036;50.858;4.472;2022-12-11T01:02:48;19.45;;;10.15;;
23714;SDS011;12036;50.858;4.472;2022-12-11T01:05:15;22.00;;;10.98;;
23714;SDS011;12036;50.858;4.472;2022-12-11T01:07:40;19.55;;;10.40;;
23714;SDS011;12036;50.858;4.472;2022-12-11T01:10:06;22.05;;;10.45;;
23714;SDS011;12036;50.858;4.472;2022-12-11T01:15:19;25.70;;;10.45;;
23714;SDS011;12036;50.858;4.472;2022-12-11T01:17:47;23.55;;;11.05;;
23714;SDS011;12036;50.858;4.472;2022-12-11T01:20:13;22.55;;;10.95;;
23714;SDS011;12036;50.858;4.472;2022-12-11T01:22:39;21.45;;;10.63;;
23714;SDS011;12036;50.858;4.472;2022-12-11T01:25:05;21.08;;;10.90;;
23714;SDS011;12036;50.858;4.472;2022-12-11T01:27:31;19.52;;;10.13;;
23714;SDS011;12036;50.858;4.472;2022-12-11T01:29:56;20.35;;;9.77;;
23714;SDS011;12036;50.858;4.472;2022-12-11T01:32:22;24.27;;;10.77;;
23714;SDS011;12036;50.858;4.472;2022-12-11T01:34:47;18.65;;;10.18;;
23714;SDS011;12036;50.858;4.472;2022-12-11T01:37:13;21.63;;;10.88;;
23714;SDS011;12036;50.858;4.472;2022-12-11T01:39:39;21.98;;;10.50;;
23714;SDS011;12036;50.858;4.472;2022-12-11T01:42:05;20.02;;;10.70;;
23714;SDS011;12036;50.858;4.472;2022-12-11T01:47:00;21.58;;;10.93;;
23714;SDS011;12036;50.858;4.472;2022-12-11T01:49:25;25.08;;;11.13;;
23714;SDS011;12036;50.858;4.472;2022-12-11T01:52:02;20.95;;;10.85;;
23714;SDS011;12036;50.858;4.472;2022-12-11T01:54:33;21.73;;;10.70;;
23714;SDS011;12036;50.858;4.472;2022-12-11T01:57:00;25.67;;;11.13;;
23714;SDS011;12036;50.858;4.472;2022-12-11T01:59:33;22.27;;;10.52;;
23714;SDS011;12036;50.858;4.472;2022-12-11T02:04:44;23.88;;;10.95;;
23714;SDS011;12036;50.858;4.472;2022-12-11T02:07:11;22.33;;;11.68;;
23714;SDS011;12036;50.858;4.472;2022-12-11T02:09:37;22.67;;;11.18;;
23714;SDS011;12036;50.858;4.472;2022-12-11T02:12:18;22.55;;;10.70;;
23714;SDS011;12036;50.858;4.472;2022-12-11T02:17:46;25.95;;;11.65;;
23714;SDS011;12036;50.858;4.472;2022-12-11T02:31:46;23.35;;;11.68;;
23714;SDS011;12036;50.858;4.472;2022-12-11T02:34:24;28.15;;;12.77;;
23714;SDS011;12036;50.858;4.472;2022-12-11T02:37:08;21.37;;;11.60;;
23714;SDS011;12036;50.858;4.472;2022-12-11T02:39:40;24.13;;;11.15;;
23714;SDS011;12036;50.858;4.472;2022-12-11T02:42:07;23.75;;;11.88;;
23714;SDS011;12036;50.858;4.472;2022-12-11T02:44:35;29.33;;;12.82;;
23714;SDS011;12036;50.858;4.472;2022-12-11T02:47:02;26.50;;;12.35;;
23714;SDS011;12036;50.858;4.472;2022-12-11T02:49:31;26.25;;;12.80;;
23714;SDS011;12036;50.858;4.472;2022-12-11T02:51:58;26.85;;;12.50;;
23714;SDS011;12036;50.858;4.472;2022-12-11T02:54:28;26.30;;;12.77;;
23714;SDS011;12036;50.858;4.472;2022-12-11T02:57:05;25.88;;;12.27;;
23714;SDS011;12036;50.858;4.472;2022-12-11T02:59:39;28.13;;;12.23;;
23714;SDS011;12036;50.858;4.472;2022-12-11T03:02:07;24.20;;;12.40;;
23714;SDS011;12036;50.858;4.472;2022-12-11T03:04:36;28.73;;;12.43;;
23714;SDS011;12036;50.858;4.472;2022-12-11T03:07:03;27.80;;;11.85;;
23714;SDS011;12036;50.858;4.472;2022-12-11T03:09:39;21.90;;;11.18;;
23714;SDS011;12036;50.858;4.472;2022-12-11T03:12:06;23.38;;;12.18;;
23714;SDS011;12036;50.858;4.472;2022-12-11T03:14:34;25.77;;;12.43;;
23714;SDS011;12036;50.858;4.472;2022-12-11T03:17:07;29.13;;;12.60;;
23714;SDS011;12036;50.858;4.472;2022-12-11T03:22:36;23.08;;;12.73;;
23714;SDS011;12036;50.858;4.472;2022-12-11T03:25:20;23.45;;;11.48;;
23714;SDS011;12036;50.858;4.472;2022-12-11T03:27:56;28.05;;;12.45;;
23714;SDS011;12036;50.858;4.472;2022-12-11T03:30:28;24.25;;;12.52;;
23714;SDS011;12036;50.858;4.472;2022-12-11T03:33:00;29.48;;;12.52;;
23714;SDS011;12036;50.858;4.472;2022-12-11T03:35:33;27.75;;;13.10;;
23714;SDS011;12036;50.858;4.472;2022-12-11T03:38:12;23.33;;;11.70;;
23714;SDS011;12036;50.858;4.472;2022-12-11T03:43:17;29.85;;;13.05;;
23714;SDS011;12036;50.858;4.472;2022-12-11T03:45:45;29.67;;;12.85;;
23714;SDS011;12036;50.858;4.472;2022-12-11T03:48:13;27.17;;;13.50;;
23714;SDS011;12036;50.858;4.472;2022-12-11T03:50:40;27.92;;;12.43;;
23714;SDS011;12036;50.858;4.472;2022-12-11T03:53:07;29.27;;;13.50;;
23714;SDS011;12036;50.858;4.472;2022-12-11T03:55:33;26.02;;;12.38;;
23714;SDS011;12036;50.858;4.472;2022-12-11T03:58:01;27.85;;;13.50;;
23714;SDS011;12036;50.858;4.472;2022-12-11T04:00:27;29.15;;;13.57;;
23714;SDS011;12036;50.858;4.472;2022-12-11T04:02:53;33.97;;;13.55;;
23714;SDS011;12036;50.858;4.472;2022-12-11T04:05:38;27.75;;;14.05;;
23714;SDS011;12036;50.858;4.472;2022-12-11T04:08:09;29.42;;;14.25;;
23714;SDS011;12036;50.858;4.472;2022-12-11T04:10:34;27.20;;;13.50;;
23714;SDS011;12036;50.858;4.472;2022-12-11T04:13:00;28.70;;;13.60;;
23714;SDS011;12036;50.858;4.472;2022-12-11T04:15:26;31.42;;;13.73;;
23714;SDS011;12036;50.858;4.472;2022-12-11T04:17:51;35.78;;;15.38;;
23714;SDS011;12036;50.858;4.472;2022-12-11T04:20:35;34.15;;;13.98;;
23714;SDS011;12036;50.858;4.472;2022-12-11T04:23:20;32.70;;;13.52;;
23714;SDS011;12036;50.858;4.472;2022-12-11T04:26:11;34.10;;;13.55;;
23714;SDS011;12036;50.858;4.472;2022-12-11T04:28:39;32.33;;;15.05;;
23714;SDS011;12036;50.858;4.472;2022-12-11T04:31:06;33.08;;;14.00;;
23714;SDS011;12036;50.858;4.472;2022-12-11T04:33:36;31.25;;;14.43;;
23714;SDS011;12036;50.858;4.472;2022-12-11T04:36:02;33.53;;;14.38;;
23714;SDS011;12036;50.858;4.472;2022-12-11T04:38:28;29.83;;;13.20;;
23714;SDS011;12036;50.858;4.472;2022-12-11T04:41:00;32.50;;;14.30;;
23714;SDS011;12036;50.858;4.472;2022-12-11T04:43:33;34.10;;;14.35;;
23714;SDS011;12036;50.858;4.472;2022-12-11T04:46:10;31.65;;;13.40;;
23714;SDS011;12036;50.858;4.472;2022-12-11T04:48:40;31.23;;;14.13;;
23714;SDS011;12036;50.858;4.472;2022-12-11T04:51:07;34.72;;;14.73;;
23714;SDS011;12036;50.858;4.472;2022-12-11T04:53:33;29.30;;;14.25;;
23714;SDS011;12036;50.858;4.472;2022-12-11T04:55:59;32.75;;;14.23;;
23714;SDS011;12036;50.858;4.472;2022-12-11T04:58:26;30.40;;;14.48;;
23714;SDS011;12036;50.858;4.472;2022-12-11T05:00:52;34.70;;;14.70;;
23714;SDS011;12036;50.858;4.472;2022-12-11T05:03:18;30.80;;;14.27;;
23714;SDS011;12036;50.858;4.472;2022-12-11T05:05:47;27.58;;;13.18;;
23714;SDS011;12036;50.858;4.472;2022-12-11T05:08:15;33.97;;;14.77;;
23714;SDS011;12036;50.858;4.472;2022-12-11T05:10:41;33.28;;;13.70;;
23714;SDS011;12036;50.858;4.472;2022-12-11T05:13:07;28.23;;;13.73;;
23714;SDS011;12036;50.858;4.472;2022-12-11T05:15:33;36.00;;;14.75;;
23714;SDS011;12036;50.858;4.472;2022-12-11T05:17:59;32.33;;;14.23;;
23714;SDS011;12036;50.858;4.472;2022-12-11T05:20:24;33.50;;;15.20;;
23714;SDS011;12036;50.858;4.472;2022-12-11T05:22:50;34.67;;;14.38;;
23714;SDS011;12036;50.858;4.472;2022-12-11T05:25:16;30.80;;;13.68;;
23714;SDS011;12036;50.858;4.472;2022-12-11T05:27:41;27.92;;;13.68;;
23714;SDS011;12036;50.858;4.472;2022-12-11T05:30:07;26.98;;;13.20;;
23714;SDS011;12036;50.858;4.472;2022-12-11T05:32:34;31.65;;;14.48;;
23714;SDS011;12036;50.858;4.472;2022-12-11T05:35:00;36.53;;;14.43;;
23714;SDS011;12036;50.858;4.472;2022-12-11T05:37:25;28.40;;;13.45;;
23714;SDS011;12036;50.858;4.472;2022-12-11T05:39:51;35.92;;;15.10;;
23714;SDS011;12036;50.858;4.472;2022-12-11T05:42:16;32.17;;;13.75;;
23714;SDS011;12036;50.858;4.472;2022-12-11T05:44:42;31.00;;;13.35;;
23714;SDS011;12036;50.858;4.472;2022-12-11T05:47:08;25.67;;;11.35;;
23714;SDS011;12036;50.858;4.472;2022-12-11T05:49:33;35.17;;;14.98;;
23714;SDS011;12036;50.858;4.472;2022-12-11T05:51:59;30.15;;;14.02;;
23714;SDS011;12036;50.858;4.472;2022-12-11T05:54:25;29.15;;;14.68;;
23714;SDS011;12036;50.858;4.472;2022-12-11T05:56:50;33.33;;;15.27;;
23714;SDS011;12036;50.858;4.472;2022-12-11T05:59:16;30.38;;;13.52;;
23714;SDS011;12036;50.858;4.472;2022-12-11T06:01:43;31.65;;;14.38;;
23714;SDS011;12036;50.858;4.472;2022-12-11T06:04:09;34.55;;;14.82;;
23714;SDS011;12036;50.858;4.472;2022-12-11T06:06:36;35.15;;;15.20;;
23714;SDS011;12036;50.858;4.472;2022-12-11T06:09:02;31.42;;;14.27;;
23714;SDS011;12036;50.858;4.472;2022-12-11T06:11:30;42.60;;;14.95;;
23714;SDS011;12036;50.858;4.472;2022-12-11T06:13:57;30.27;;;13.85;;
23714;SDS011;12036;50.858;4.472;2022-12-11T06:16:24;34.58;;;14.82;;
23714;SDS011;12036;50.858;4.472;2022-12-11T06:18:50;35.55;;;14.27;;
23714;SDS011;12036;50.858;4.472;2022-12-11T06:21:23;30.45;;;14.73;;
23714;SDS011;12036;50.858;4.472;2022-12-11T06:23:54;34.20;;;14.55;;
23714;SDS011;12036;50.858;4.472;2022-12-11T06:26:22;32.35;;;14.15;;
23714;SDS011;12036;50.858;4.472;2022-12-11T06:28:49;30.17;;;13.95;;
23714;SDS011;12036;50.858;4.472;2022-12-11T06:31:16;26.73;;;13.88;;
23714;SDS011;12036;50.858;4.472;2022-12-11T06:33:42;31.40;;;13.23;;
23714;SDS011;12036;50.858;4.472;2022-12-11T06:36:09;31.30;;;14.05;;
23714;SDS011;12036;50.858;4.472;2022-12-11T06:38:36;26.65;;;14.32;;
23714;SDS011;12036;50.858;4.472;2022-12-11T06:41:03;33.28;;;14.32;;
23714;SDS011;12036;50.858;4.472;2022-12-11T06:43:33;28.88;;;13.30;;
23714;SDS011;12036;50.858;4.472;2022-12-11T06:46:07;29.80;;;14.10;;
23714;SDS011;12036;50.858;4.472;2022-12-11T06:48:34;30.77;;;14.10;;
23714;SDS011;12036;50.858;4.472;2022-12-11T06:51:08;33.28;;;15.32;;
23714;SDS011;12036;50.858;4.472;2022-12-11T06:53:35;30.23;;;13.85;;
23714;SDS011;12036;50.858;4.472;2022-12-11T06:56:02;28.02;;;14.07;;
23714;SDS011;12036;50.858;4.472;2022-12-11T06:58:29;33.90;;;14.30;;
23714;SDS011;12036;50.858;4.472;2022-12-11T07:00:55;32.53;;;13.43;;
23714;SDS011;12036;50.858;4.472;2022-12-11T07:03:20;33.85;;;15.30;;
23714;SDS011;12036;50.858;4.472;2022-12-11T07:05:46;29.55;;;13.90;;
23714;SDS011;12036;50.858;4.472;2022-12-11T07:08:11;35.03;;;15.38;;
23714;SDS011;12036;50.858;4.472;2022-12-11T07:10:37;31.77;;;14.23;;
23714;SDS011;12036;50.858;4.472;2022-12-11T07:13:03;30.85;;;13.63;;
23714;SDS011;12036;50.858;4.472;2022-12-11T07:15:28;35.30;;;14.30;;
23714;SDS011;12036;50.858;4.472;2022-12-11T07:17:54;28.77;;;14.13;;
23714;SDS011;12036;50.858;4.472;2022-12-11T07:20:19;34.10;;;15.32;;
23714;SDS011;12036;50.858;4.472;2022-12-11T07:22:45;33.38;;;14.95;;
23714;SDS011;12036;50.858;4.472;2022-12-11T07:25:11;27.83;;;13.98;;
23714;SDS011;12036;50.858;4.472;2022-12-11T07:27:36;33.45;;;15.05;;
23714;SDS011;12036;50.858;4.472;2022-12-11T07:30:02;32.05;;;13.55;;
23714;SDS011;12036;50.858;4.472;2022-12-11T07:32:28;29.70;;;13.77;;
23714;SDS011;12036;50.858;4.472;2022-12-11T07:34:54;35.53;;;15.43;;
23714;SDS011;12036;50.858;4.472;2022-12-11T07:37:19;33.83;;;14.05;;
23714;SDS011;12036;50.858;4.472;2022-12-11T07:39:45;32.10;;;14.93;;
23714;SDS011;12036;50.858;4.472;2022-12-11T07:42:12;32.25;;;14.25;;
23714;SDS011;12036;50.858;4.472;2022-12-11T07:44:38;31.85;;;14.45;;
23714;SDS011;12036;50.858;4.472;2022-12-11T07:47:04;31.05;;;15.05;;
23714;SDS011;12036;50.858;4.472;2022-12-11T07:49:29;32.35;;;14.93;;
23714;SDS011;12036;50.858;4.472;2022-12-11T07:51:55;29.65;;;13.82;;
23714;SDS011;12036;50.858;4.472;2022-12-11T07:54:21;31.42;;;13.88;;
23714;SDS011;12036;50.858;4.472;2022-12-11T07:56:46;31.33;;;15.02;;
23714;SDS011;12036;50.858;4.472;2022-12-11T07:59:12;32.45;;;14.15;;
23714;SDS011;12036;50.858;4.472;2022-12-11T08:01:39;30.35;;;14.88;;
23714;SDS011;12036;50.858;4.472;2022-12-11T08:04:07;33.67;;;14.35;;
23714;SDS011;12036;50.858;4.472;2022-12-11T08:06:35;31.73;;;13.90;;
23714;SDS011;12036;50.858;4.472;2022-12-11T08:09:04;31.67;;;14.55;;
23714;SDS011;12036;50.858;4.472;2022-12-11T08:11:31;34.20;;;14.38;;
23714;SDS011;12036;50.858;4.472;2022-12-11T08:13:57;31.38;;;14.60;;
23714;SDS011;12036;50.858;4.472;2022-12-11T08:16:23;31.02;;;13.95;;
23714;SDS011;12036;50.858;4.472;2022-12-11T08:18:50;31.38;;;14.63;;
23714;SDS011;12036;50.858;4.472;2022-12-11T08:23:49;37.67;;;16.35;;
23714;SDS011;12036;50.858;4.472;2022-12-11T08:26:17;39.67;;;15.23;;
23714;SDS011;12036;50.858;4.472;2022-12-11T08:28:44;37.47;;;15.13;;
23714;SDS011;12036;50.858;4.472;2022-12-11T08:31:10;34.70;;;14.98;;
23714;SDS011;12036;50.858;4.472;2022-12-11T08:33:37;33.63;;;14.07;;
23714;SDS011;12036;50.858;4.472;2022-12-11T08:36:07;27.77;;;12.77;;
23714;SDS011;12036;50.858;4.472;2022-12-11T08:38:35;34.72;;;14.43;;
23714;SDS011;12036;50.858;4.472;2022-12-11T08:43:52;29.88;;;12.93;;
23714;SDS011;12036;50.858;4.472;2022-12-11T08:46:25;33.08;;;14.02;;
23714;SDS011;12036;50.858;4.472;2022-12-11T08:48:53;25.70;;;13.00;;
23714;SDS011;12036;50.858;4.472;2022-12-11T08:51:20;30.10;;;13.07;;
23714;SDS011;12036;50.858;4.472;2022-12-11T08:53:48;30.63;;;13.70;;
23714;SDS011;12036;50.858;4.472;2022-12-11T08:56:16;28.90;;;13.10;;
23714;SDS011;12036;50.858;4.472;2022-12-11T08:58:44;34.25;;;13.63;;
23714;SDS011;12036;50.858;4.472;2022-12-11T09:03:37;25.05;;;12.02;;
23714;SDS011;12036;50.858;4.472;2022-12-11T09:06:08;26.02;;;13.00;;
23714;SDS011;12036;50.858;4.472;2022-12-11T09:08:35;24.63;;;12.98;;
23714;SDS011;12036;50.858;4.472;2022-12-11T09:11:08;25.98;;;12.82;;
23714;SDS011;12036;50.858;4.472;2022-12-11T09:13:37;31.80;;;12.80;;
23714;SDS011;12036;50.858;4.472;2022-12-11T09:16:04;25.63;;;11.10;;
23714;SDS011;12036;50.858;4.472;2022-12-11T09:18:35;31.60;;;13.95;;
23714;SDS011;12036;50.858;4.472;2022-12-11T09:21:03;25.27;;;11.95;;
23714;SDS011;12036;50.858;4.472;2022-12-11T09:23:31;28.70;;;12.70;;
23714;SDS011;12036;50.858;4.472;2022-12-11T09:25:56;30.08;;;12.57;;
23714;SDS011;12036;50.858;4.472;2022-12-11T09:28:23;28.67;;;13.43;;
23714;SDS011;12036;50.858;4.472;2022-12-11T09:30:49;28.90;;;14.55;;
23714;SDS011;12036;50.858;4.472;2022-12-11T09:33:15;30.13;;;13.63;;
23714;SDS011;12036;50.858;4.472;2022-12-11T09:35:41;27.17;;;13.23;;
23714;SDS011;12036;50.858;4.472;2022-12-11T09:38:07;31.90;;;12.82;;
23714;SDS011;12036;50.858;4.472;2022-12-11T09:40:33;28.20;;;12.75;;
23714;SDS011;12036;50.858;4.472;2022-12-11T09:43:10;30.80;;;12.70;;
23714;SDS011;12036;50.858;4.472;2022-12-11T09:45:49;26.17;;;11.65;;
23714;SDS011;12036;50.858;4.472;2022-12-11T09:48:15;26.70;;;12.48;;
23714;SDS011;12036;50.858;4.472;2022-12-11T10:01:15;23.80;;;10.88;;
23714;SDS011;12036;50.858;4.472;2022-12-11T10:09:21;27.80;;;13.27;;
23714;SDS011;12036;50.858;4.472;2022-12-11T10:15:11;32.60;;;13.38;;
23714;SDS011;12036;50.858;4.472;2022-12-11T10:17:38;35.97;;;15.05;;
23714;SDS011;12036;50.858;4.472;2022-12-11T10:23:00;28.08;;;12.35;;
23714;SDS011;12036;50.858;4.472;2022-12-11T10:25:31;27.75;;;12.52;;
23714;SDS011;12036;50.858;4.472;2022-12-11T10:28:11;25.10;;;11.25;;
23714;SDS011;12036;50.858;4.472;2022-12-11T10:30:38;26.42;;;12.05;;
23714;SDS011;12036;50.858;4.472;2022-12-11T10:33:22;27.42;;;12.82;;
23714;SDS011;12036;50.858;4.472;2022-12-11T10:35:56;27.52;;;12.73;;
23714;SDS011;12036;50.858;4.472;2022-12-11T10:38:43;25.45;;;11.45;;
23714;SDS011;12036;50.858;4.472;2022-12-11T10:43:49;25.67;;;12.43;;
23714;SDS011;12036;50.858;4.472;2022-12-11T10:49:01;25.55;;;11.65;;
23714;SDS011;12036;50.858;4.472;2022-12-11T10:53:57;27.52;;;12.02;;
23714;SDS011;12036;50.858;4.472;2022-12-11T10:56:28;28.98;;;12.50;;
23714;SDS011;12036;50.858;4.472;2022-12-11T10:58:57;28.08;;;12.43;;
23714;SDS011;12036;50.858;4.472;2022-12-11T11:01:25;28.50;;;12.32;;
23714;SDS011;12036;50.858;4.472;2022-12-11T11:03:56;25.35;;;12.18;;
23714;SDS011;12036;50.858;4.472;2022-12-11T11:06:24;29.60;;;12.75;;
23714;SDS011;12036;50.858;4.472;2022-12-11T11:08:52;27.20;;;11.90;;
23714;SDS011;12036;50.858;4.472;2022-12-11T11:11:21;22.48;;;11.30;;
23714;SDS011;12036;50.858;4.472;2022-12-11T11:16:36;29.02;;;12.20;;
23714;SDS011;12036;50.858;4.472;2022-12-11T11:19:04;26.75;;;12.30;;
23714;SDS011;12036;50.858;4.472;2022-12-11T11:21:30;26.92;;;12.07;;
23714;SDS011;12036;50.858;4.472;2022-12-11T11:23:58;25.90;;;11.73;;
23714;SDS011;12036;50.858;4.472;2022-12-11T11:26:23;28.10;;;11.90;;
23714;SDS011;12036;50.858;4.472;2022-12-11T11:28:53;26.23;;;11.77;;
23714;SDS011;12036;50.858;4.472;2022-12-11T11:31:21;25.20;;;11.65;;
23714;SDS011;12036;50.858;4.472;2022-12-11T11:33:57;28.73;;;12.05;;
23714;SDS011;12036;50.858;4.472;2022-12-11T11:36:28;24.25;;;11.25;;
23714;SDS011;12036;50.858;4.472;2022-12-11T11:39:05;23.55;;;10.85;;
23714;SDS011;12036;50.858;4.472;2022-12-11T11:41:59;24.15;;;10.77;;
23714;SDS011;12036;50.858;4.472;2022-12-11T11:44:40;25.95;;;10.75;;
23714;SDS011;12036;50.858;4.472;2022-12-11T11:47:15;22.75;;;10.27;;
23714;SDS011;12036;50.858;4.472;2022-12-11T11:58:00;22.52;;;10.10;;
23714;SDS011;12036;50.858;4.472;2022-12-11T12:00:38;25.33;;;11.20;;
23714;SDS011;12036;50.858;4.472;2022-12-11T12:03:14;22.02;;;9.93;;
23714;SDS011;12036;50.858;4.472;2022-12-11T12:05:56;22.20;;;9.57;;
23714;SDS011;12036;50.858;4.472;2022-12-11T12:11:39;19.45;;;9.88;;
23714;SDS011;12036;50.858;4.472;2022-12-11T12:14:29;23.08;;;9.75;;
23714;SDS011;12036;50.858;4.472;2022-12-11T12:25:21;22.00;;;10.23;;
23714;SDS011;12036;50.858;4.472;2022-12-11T12:30:59;23.98;;;10.57;;
23714;SDS011;12036;50.858;4.472;2022-12-11T12:33:32;22.98;;;9.43;;
23714;SDS011;12036;50.858;4.472;2022-12-11T12:44:34;22.20;;;10.77;;
23714;SDS011;12036;50.858;4.472;2022-12-11T12:46:57;24.38;;;10.88;;
23714;SDS011;12036;50.858;4.472;2022-12-11T12:51:58;23.05;;;10.52;;
23714;SDS011;12036;50.858;4.472;2022-12-11T12:54:25;24.80;;;10.75;;
23714;SDS011;12036;50.858;4.472;2022-12-11T12:56:52;26.05;;;11.30;;
23714;SDS011;12036;50.858;4.472;2022-12-11T12:59:20;22.60;;;10.57;;
23714;SDS011;12036;50.858;4.472;2022-12-11T13:01:49;25.00;;;10.68;;
23714;SDS011;12036;50.858;4.472;2022-12-11T13:04:40;24.85;;;10.85;;
23714;SDS011;12036;50.858;4.472;2022-12-11T13:07:17;21.67;;;9.43;;
23714;SDS011;12036;50.858;4.472;2022-12-11T13:10:00;25.55;;;11.35;;
23714;SDS011;12036;50.858;4.472;2022-12-11T13:12:31;26.02;;;11.05;;
23714;SDS011;12036;50.858;4.472;2022-12-11T13:15:22;27.05;;;10.60;;
23714;SDS011;12036;50.858;4.472;2022-12-11T13:21:03;24.05;;;10.57;;
23714;SDS011;12036;50.858;4.472;2022-12-11T13:24:26;25.23;;;10.65;;
23714;SDS011;12036;50.858;4.472;2022-12-11T13:26:52;23.77;;;10.88;;
23714;SDS011;12036;50.858;4.472;2022-12-11T13:29:32;25.63;;;11.23;;
23714;SDS011;12036;50.858;4.472;2022-12-11T13:32:01;23.58;;;10.13;;
23714;SDS011;12036;50.858;4.472;2022-12-11T13:34:37;25.20;;;10.75;;
23714;SDS011;12036;50.858;4.472;2022-12-11T13:37:06;23.90;;;10.85;;
23714;SDS011;12036;50.858;4.472;2022-12-11T13:39:51;27.77;;;11.48;;
23714;SDS011;12036;50.858;4.472;2022-12-11T13:42:21;25.77;;;11.50;;
23714;SDS011;12036;50.858;4.472;2022-12-11T13:44:53;28.70;;;11.77;;
23714;SDS011;12036;50.858;4.472;2022-12-11T13:47:19;29.25;;;10.90;;
23714;SDS011;12036;50.858;4.472;2022-12-11T13:49:46;26.83;;;12.35;;
23714;SDS011;12036;50.858;4.472;2022-12-11T13:52:18;27.70;;;12.52;;
23714;SDS011;12036;50.858;4.472;2022-12-11T13:54:46;28.10;;;11.55;;
23714;SDS011;12036;50.858;4.472;2022-12-11T13:57:14;24.80;;;11.38;;
23714;SDS011;12036;50.858;4.472;2022-12-11T13:59:45;29.63;;;12.48;;
23714;SDS011;12036;50.858;4.472;2022-12-11T14:04:42;27.20;;;11.73;;
23714;SDS011;12036;50.858;4.472;2022-12-11T14:07:08;28.88;;;12.30;;
23714;SDS011;12036;50.858;4.472;2022-12-11T14:09:36;28.88;;;12.48;;
23714;SDS011;12036;50.858;4.472;2022-12-11T14:12:17;26.73;;;12.48;;
23714;SDS011;12036;50.858;4.472;2022-12-11T14:15:03;27.45;;;11.55;;
23714;SDS011;12036;50.858;4.472;2022-12-11T14:17:30;27.20;;;12.27;;
23714;SDS011;12036;50.858;4.472;2022-12-11T14:19:59;31.73;;;12.70;;
23714;SDS011;12036;50.858;4.472;2022-12-11T14:24:57;33.83;;;12.68;;
23714;SDS011;12036;50.858;4.472;2022-12-11T14:27:26;29.15;;;12.82;;
23714;SDS011;12036;50.858;4.472;2022-12-11T14:29:51;30.02;;;13.32;;
23714;SDS011;12036;50.858;4.472;2022-12-11T14:32:27;30.73;;;13.25;;
23714;SDS011;12036;50.858;4.472;2022-12-11T14:35:03;30.27;;;14.20;;
23714;SDS011;12036;50.858;4.472;2022-12-11T14:37:32;32.85;;;12.82;;
23714;SDS011;12036;50.858;4.472;2022-12-11T14:40:04;32.53;;;13.15;;
23714;SDS011;12036;50.858;4.472;2022-12-11T14:42:33;28.33;;;12.90;;
23714;SDS011;12036;50.858;4.472;2022-12-11T14:47:31;33.53;;;14.38;;
23714;SDS011;12036;50.858;4.472;2022-12-11T14:52:29;32.17;;;14.75;;
23714;SDS011;12036;50.858;4.472;2022-12-11T14:57:34;30.65;;;13.43;;
23714;SDS011;12036;50.858;4.472;2022-12-11T15:00:03;32.85;;;13.40;;
23714;SDS011;12036;50.858;4.472;2022-12-11T15:02:31;32.90;;;14.32;;
23714;SDS011;12036;50.858;4.472;2022-12-11T15:05:00;38.40;;;14.93;;
23714;SDS011;12036;50.858;4.472;2022-12-11T15:07:31;33.83;;;15.38;;
23714;SDS011;12036;50.858;4.472;2022-12-11T15:09:58;33.22;;;13.68;;
23714;SDS011;12036;50.858;4.472;2022-12-11T15:12:23;32.10;;;13.98;;
23714;SDS011;12036;50.858;4.472;2022-12-11T15:14:53;33.75;;;14.40;;
23714;SDS011;12036;50.858;4.472;2022-12-11T15:17:27;36.72;;;15.73;;
23714;SDS011;12036;50.858;4.472;2022-12-11T15:20:39;30.17;;;13.45;;
23714;SDS011;12036;50.858;4.472;2022-12-11T15:22:47;31.35;;;14.68;;
23714;SDS011;12036;50.858;4.472;2022-12-11T15:25:17;32.38;;;13.48;;
23714;SDS011;12036;50.858;4.472;2022-12-11T15:27:48;31.38;;;13.50;;
23714;SDS011;12036;50.858;4.472;2022-12-11T15:32:43;30.50;;;13.88;;
23714;SDS011;12036;50.858;4.472;2022-12-11T15:35:23;35.17;;;14.70;;
23714;SDS011;12036;50.858;4.472;2022-12-11T15:37:51;27.50;;;13.43;;
23714;SDS011;12036;50.858;4.472;2022-12-11T15:40:18;37.88;;;15.27;;
23714;SDS011;12036;50.858;4.472;2022-12-11T15:42:43;29.95;;;14.55;;
23714;SDS011;12036;50.858;4.472;2022-12-11T15:45:16;35.80;;;15.55;;
23714;SDS011;12036;50.858;4.472;2022-12-11T15:47:44;31.83;;;15.05;;
23714;SDS011;12036;50.858;4.472;2022-12-11T15:52:36;32.72;;;14.38;;
23714;SDS011;12036;50.858;4.472;2022-12-11T15:55:02;38.20;;;15.93;;
23714;SDS011;12036;50.858;4.472;2022-12-11T15:57:28;33.10;;;16.55;;
23714;SDS011;12036;50.858;4.472;2022-12-11T15:59:54;31.15;;;15.82;;
23714;SDS011;12036;50.858;4.472;2022-12-11T16:02:20;35.92;;;16.98;;
23714;SDS011;12036;50.858;4.472;2022-12-11T16:04:46;34.58;;;17.67;;
23714;SDS011;12036;50.858;4.472;2022-12-11T16:07:13;41.80;;;19.27;;
23714;SDS011;12036;50.858;4.472;2022-12-11T16:09:44;37.45;;;17.77;;
23714;SDS011;12036;50.858;4.472;2022-12-11T16:12:10;31.48;;;15.48;;
23714;SDS011;12036;50.858;4.472;2022-12-11T16:14:37;36.05;;;17.42;;
23714;SDS011;12036;50.858;4.472;2022-12-11T16:17:06;36.72;;;16.10;;
23714;SDS011;12036;50.858;4.472;2022-12-11T16:19:33;28.00;;;14.68;;
23714;SDS011;12036;50.858;4.472;2022-12-11T16:22:00;30.45;;;14.55;;
23714;SDS011;12036;50.858;4.472;2022-12-11T16:24:26;29.98;;;14.60;;
23714;SDS011;12036;50.858;4.472;2022-12-11T16:26:52;30.23;;;14.63;;
23714;SDS011;12036;50.858;4.472;2022-12-11T16:29:18;33.03;;;14.75;;
23714;SDS011;12036;50.858;4.472;2022-12-11T16:31:43;28.35;;;13.23;;
23714;SDS011;12036;50.858;4.472;2022-12-11T16:34:09;32.90;;;15.73;;
23714;SDS011;12036;50.858;4.472;2022-12-11T16:36:35;27.83;;;13.55;;
23714;SDS011;12036;50.858;4.472;2022-12-11T16:39:00;25.48;;;12.85;;